sensor_id;sensor_type;location;lat;lon;timestamp;P1;durP1;ratioP1;P2;durP2;ratioP2
36799;SDS011;22752;51.960;5.886;2023-05-09T00:01:18;83.90;;;36.42;;
36799;SDS011;22752;51.960;5.886;2023-05-09T00:03:44;54.53;;;28.88;;
36799;SDS011;22752;51.960;5.886;2023-05-09T00:06:10;56.20;;;29.25;;
36799;SDS011;22752;51.960;5.886;2023-05-09T00:08:37;66.57;;;31.20;;
36799;SDS011;22752;51.960;5.886;2023-05-09T00:11:03;78.47;;;33.97;;
36799;SDS011;22752;51.960;5.886;2023-05-09T00:13:29;90.00;;;37.92;;
36799;SDS011;22752;51.960;5.886;2023-05-09T00:15:54;86.18;;;38.08;;
36799;SDS011;22752;51.960;5.886;2023-05-09T00:18:21;76.65;;;34.65;;
36799;SDS011;22752;51.960;5.886;2023-05-09T00:20:47;80.30;;;31.92;;
36799;SDS011;22752;51.960;5.886;2023-05-09T00:23:13;72.78;;;32.90;;
36799;SDS011;22752;51.960;5.886;2023-05-09T00:25:39;66.57;;;31.77;;
36799;SDS011;22752;51.960;5.886;2023-05-09T00:28:05;79.43;;;35.25;;
36799;SDS011;22752;51.960;5.886;2023-05-09T00:30:30;74.90;;;34.50;;
36799;SDS011;22752;51.960;5.886;2023-05-09T00:32:56;70.68;;;33.67;;
36799;SDS011;22752;51.960;5.886;2023-05-09T00:35:22;92.43;;;36.15;;
36799;SDS011;22752;51.960;5.886;2023-05-09T00:37:47;63.10;;;33.03;;
36799;SDS011;22752;51.960;5.886;2023-05-09T00:40:13;65.20;;;32.72;;
36799;SDS011;22752;51.960;5.886;2023-05-09T00:42:39;73.00;;;35.65;;
36799;SDS011;22752;51.960;5.886;2023-05-09T00:45:05;68.57;;;34.20;;
36799;SDS011;22752;51.960;5.886;2023-05-09T00:47:32;70.88;;;34.65;;
36799;SDS011;22752;51.960;5.886;2023-05-09T00:49:58;63.60;;;33.28;;
36799;SDS011;22752;51.960;5.886;2023-05-09T00:52:25;76.95;;;34.75;;
36799;SDS011;22752;51.960;5.886;2023-05-09T00:54:51;76.57;;;36.35;;
36799;SDS011;22752;51.960;5.886;2023-05-09T00:57:17;78.18;;;37.40;;
36799;SDS011;22752;51.960;5.886;2023-05-09T00:59:43;74.53;;;37.38;;
36799;SDS011;22752;51.960;5.886;2023-05-09T01:02:09;77.88;;;36.42;;
36799;SDS011;22752;51.960;5.886;2023-05-09T01:04:35;72.45;;;35.67;;
36799;SDS011;22752;51.960;5.886;2023-05-09T01:07:02;103.20;;;38.13;;
36799;SDS011;22752;51.960;5.886;2023-05-09T01:10:36;86.18;;;38.55;;
36799;SDS011;22752;51.960;5.886;2023-05-09T01:12:58;81.03;;;35.88;;
36799;SDS011;22752;51.960;5.886;2023-05-09T01:15:44;54.07;;;28.63;;
36799;SDS011;22752;51.960;5.886;2023-05-09T01:18:25;57.42;;;29.25;;
36799;SDS011;22752;51.960;5.886;2023-05-09T01:21:04;67.15;;;32.60;;
36799;SDS011;22752;51.960;5.886;2023-05-09T01:23:40;94.72;;;38.80;;
36799;SDS011;22752;51.960;5.886;2023-05-09T01:31:52;73.30;;;34.78;;
36799;SDS011;22752;51.960;5.886;2023-05-09T01:34:20;75.55;;;33.15;;
36799;SDS011;22752;51.960;5.886;2023-05-09T01:36:50;78.80;;;36.15;;
36799;SDS011;22752;51.960;5.886;2023-05-09T01:39:18;79.75;;;38.28;;
36799;SDS011;22752;51.960;5.886;2023-05-09T01:41:45;86.60;;;37.40;;
36799;SDS011;22752;51.960;5.886;2023-05-09T01:44:11;82.18;;;34.22;;
36799;SDS011;22752;51.960;5.886;2023-05-09T01:46:39;76.47;;;32.50;;
36799;SDS011;22752;51.960;5.886;2023-05-09T01:49:07;69.60;;;32.00;;
36799;SDS011;22752;51.960;5.886;2023-05-09T01:51:34;64.57;;;30.67;;
36799;SDS011;22752;51.960;5.886;2023-05-09T01:54:01;65.43;;;31.02;;
36799;SDS011;22752;51.960;5.886;2023-05-09T01:56:29;60.17;;;29.55;;
36799;SDS011;22752;51.960;5.886;2023-05-09T01:58:55;66.53;;;31.58;;
36799;SDS011;22752;51.960;5.886;2023-05-09T02:01:22;63.10;;;32.47;;
36799;SDS011;22752;51.960;5.886;2023-05-09T02:03:49;71.68;;;33.38;;
36799;SDS011;22752;51.960;5.886;2023-05-09T02:06:19;93.75;;;40.45;;
36799;SDS011;22752;51.960;5.886;2023-05-09T02:08:47;96.15;;;41.60;;
36799;SDS011;22752;51.960;5.886;2023-05-09T02:11:14;82.97;;;37.05;;
36799;SDS011;22752;51.960;5.886;2023-05-09T02:13:40;78.97;;;36.33;;
36799;SDS011;22752;51.960;5.886;2023-05-09T02:16:05;93.10;;;39.08;;
36799;SDS011;22752;51.960;5.886;2023-05-09T02:18:32;78.70;;;36.95;;
36799;SDS011;22752;51.960;5.886;2023-05-09T02:20:58;87.75;;;39.30;;
36799;SDS011;22752;51.960;5.886;2023-05-09T02:23:24;87.05;;;38.15;;
36799;SDS011;22752;51.960;5.886;2023-05-09T02:25:50;98.35;;;41.25;;
36799;SDS011;22752;51.960;5.886;2023-05-09T02:28:18;91.03;;;41.13;;
36799;SDS011;22752;51.960;5.886;2023-05-09T02:30:45;78.20;;;38.65;;
36799;SDS011;22752;51.960;5.886;2023-05-09T02:33:13;88.88;;;38.55;;
36799;SDS011;22752;51.960;5.886;2023-05-09T02:35:40;77.80;;;36.95;;
36799;SDS011;22752;51.960;5.886;2023-05-09T02:38:08;76.63;;;39.00;;
36799;SDS011;22752;51.960;5.886;2023-05-09T02:40:34;88.53;;;40.90;;
36799;SDS011;22752;51.960;5.886;2023-05-09T02:43:00;86.40;;;39.58;;
36799;SDS011;22752;51.960;5.886;2023-05-09T02:45:26;86.72;;;41.92;;
36799;SDS011;22752;51.960;5.886;2023-05-09T02:47:51;84.82;;;37.97;;
36799;SDS011;22752;51.960;5.886;2023-05-09T02:50:17;80.28;;;38.50;;
36799;SDS011;22752;51.960;5.886;2023-05-09T02:52:43;87.32;;;39.53;;
36799;SDS011;22752;51.960;5.886;2023-05-09T02:55:09;88.10;;;41.00;;
36799;SDS011;22752;51.960;5.886;2023-05-09T02:57:34;91.05;;;42.75;;
36799;SDS011;22752;51.960;5.886;2023-05-09T03:00:00;86.15;;;41.35;;
36799;SDS011;22752;51.960;5.886;2023-05-09T03:02:26;96.47;;;40.33;;
36799;SDS011;22752;51.960;5.886;2023-05-09T03:04:52;83.63;;;38.65;;
36799;SDS011;22752;51.960;5.886;2023-05-09T03:07:18;74.25;;;36.92;;
36799;SDS011;22752;51.960;5.886;2023-05-09T03:09:43;75.55;;;37.85;;
36799;SDS011;22752;51.960;5.886;2023-05-09T03:12:09;77.65;;;37.67;;
36799;SDS011;22752;51.960;5.886;2023-05-09T03:14:34;84.50;;;40.50;;
36799;SDS011;22752;51.960;5.886;2023-05-09T03:17:00;81.78;;;39.90;;
36799;SDS011;22752;51.960;5.886;2023-05-09T03:19:26;102.25;;;46.17;;
36799;SDS011;22752;51.960;5.886;2023-05-09T03:21:51;82.72;;;41.10;;
36799;SDS011;22752;51.960;5.886;2023-05-09T03:24:17;92.53;;;41.85;;
36799;SDS011;22752;51.960;5.886;2023-05-09T03:26:43;87.60;;;40.30;;
36799;SDS011;22752;51.960;5.886;2023-05-09T03:29:08;77.72;;;38.03;;
36799;SDS011;22752;51.960;5.886;2023-05-09T03:31:34;89.95;;;41.35;;
36799;SDS011;22752;51.960;5.886;2023-05-09T03:34:00;87.07;;;40.35;;
36799;SDS011;22752;51.960;5.886;2023-05-09T03:36:25;91.03;;;42.80;;
36799;SDS011;22752;51.960;5.886;2023-05-09T03:38:51;81.25;;;39.78;;
36799;SDS011;22752;51.960;5.886;2023-05-09T03:41:17;92.68;;;44.10;;
36799;SDS011;22752;51.960;5.886;2023-05-09T03:43:43;82.38;;;41.05;;
36799;SDS011;22752;51.960;5.886;2023-05-09T03:46:09;89.60;;;43.03;;
36799;SDS011;22752;51.960;5.886;2023-05-09T03:48:35;85.05;;;40.95;;
36799;SDS011;22752;51.960;5.886;2023-05-09T03:51:00;80.65;;;40.88;;
36799;SDS011;22752;51.960;5.886;2023-05-09T03:53:27;88.50;;;41.45;;
36799;SDS011;22752;51.960;5.886;2023-05-09T03:55:52;69.45;;;37.05;;
36799;SDS011;22752;51.960;5.886;2023-05-09T03:58:18;82.47;;;37.97;;
36799;SDS011;22752;51.960;5.886;2023-05-09T04:00:44;79.63;;;40.25;;
36799;SDS011;22752;51.960;5.886;2023-05-09T04:03:10;71.70;;;37.65;;
36799;SDS011;22752;51.960;5.886;2023-05-09T04:05:36;95.88;;;45.15;;
36799;SDS011;22752;51.960;5.886;2023-05-09T04:08:02;83.57;;;40.42;;
36799;SDS011;22752;51.960;5.886;2023-05-09T04:10:31;84.32;;;40.72;;
36799;SDS011;22752;51.960;5.886;2023-05-09T04:12:57;71.93;;;37.33;;
36799;SDS011;22752;51.960;5.886;2023-05-09T04:15:24;75.70;;;37.85;;
36799;SDS011;22752;51.960;5.886;2023-05-09T04:17:50;71.82;;;36.33;;
36799;SDS011;22752;51.960;5.886;2023-05-09T04:20:15;76.03;;;39.70;;
36799;SDS011;22752;51.960;5.886;2023-05-09T04:22:41;83.05;;;41.22;;
36799;SDS011;22752;51.960;5.886;2023-05-09T04:25:07;73.03;;;38.75;;
36799;SDS011;22752;51.960;5.886;2023-05-09T04:27:36;66.93;;;37.15;;
36799;SDS011;22752;51.960;5.886;2023-05-09T04:30:02;84.00;;;39.92;;
36799;SDS011;22752;51.960;5.886;2023-05-09T04:32:28;72.22;;;40.08;;
36799;SDS011;22752;51.960;5.886;2023-05-09T04:34:53;67.35;;;36.83;;
36799;SDS011;22752;51.960;5.886;2023-05-09T04:37:19;64.82;;;36.08;;
36799;SDS011;22752;51.960;5.886;2023-05-09T04:39:45;68.70;;;36.70;;
36799;SDS011;22752;51.960;5.886;2023-05-09T04:42:11;69.53;;;36.90;;
36799;SDS011;22752;51.960;5.886;2023-05-09T04:44:36;70.45;;;35.50;;
36799;SDS011;22752;51.960;5.886;2023-05-09T04:47:02;70.00;;;37.80;;
36799;SDS011;22752;51.960;5.886;2023-05-09T04:49:27;65.53;;;36.38;;
36799;SDS011;22752;51.960;5.886;2023-05-09T04:51:53;78.82;;;40.13;;
36799;SDS011;22752;51.960;5.886;2023-05-09T04:54:19;70.45;;;38.58;;
36799;SDS011;22752;51.960;5.886;2023-05-09T04:56:45;65.72;;;37.25;;
36799;SDS011;22752;51.960;5.886;2023-05-09T04:59:11;74.72;;;39.03;;
36799;SDS011;22752;51.960;5.886;2023-05-09T05:01:36;61.05;;;35.38;;
36799;SDS011;22752;51.960;5.886;2023-05-09T05:04:02;59.20;;;32.13;;
36799;SDS011;22752;51.960;5.886;2023-05-09T05:06:27;58.58;;;34.17;;
36799;SDS011;22752;51.960;5.886;2023-05-09T05:08:53;58.70;;;34.03;;
36799;SDS011;22752;51.960;5.886;2023-05-09T05:11:19;58.78;;;33.50;;
36799;SDS011;22752;51.960;5.886;2023-05-09T05:13:45;59.72;;;34.33;;
36799;SDS011;22752;51.960;5.886;2023-05-09T05:16:11;55.08;;;32.50;;
36799;SDS011;22752;51.960;5.886;2023-05-09T05:18:37;57.60;;;35.58;;
36799;SDS011;22752;51.960;5.886;2023-05-09T05:21:02;62.88;;;36.53;;
36799;SDS011;22752;51.960;5.886;2023-05-09T05:23:28;62.25;;;35.95;;
36799;SDS011;22752;51.960;5.886;2023-05-09T05:25:54;56.03;;;35.58;;
36799;SDS011;22752;51.960;5.886;2023-05-09T05:28:19;54.78;;;33.83;;
36799;SDS011;22752;51.960;5.886;2023-05-09T05:30:45;57.75;;;34.05;;
36799;SDS011;22752;51.960;5.886;2023-05-09T05:33:11;60.00;;;34.47;;
36799;SDS011;22752;51.960;5.886;2023-05-09T05:35:37;55.03;;;33.67;;
36799;SDS011;22752;51.960;5.886;2023-05-09T05:38:02;57.67;;;33.10;;
36799;SDS011;22752;51.960;5.886;2023-05-09T05:40:28;55.47;;;32.97;;
36799;SDS011;22752;51.960;5.886;2023-05-09T05:42:53;56.10;;;33.08;;
36799;SDS011;22752;51.960;5.886;2023-05-09T05:45:19;55.83;;;32.30;;
36799;SDS011;22752;51.960;5.886;2023-05-09T05:47:45;52.22;;;31.80;;
36799;SDS011;22752;51.960;5.886;2023-05-09T05:50:11;50.20;;;30.95;;
36799;SDS011;22752;51.960;5.886;2023-05-09T05:52:37;47.65;;;29.75;;
36799;SDS011;22752;51.960;5.886;2023-05-09T05:55:03;41.85;;;28.08;;
36799;SDS011;22752;51.960;5.886;2023-05-09T05:57:29;46.95;;;29.42;;
36799;SDS011;22752;51.960;5.886;2023-05-09T05:59:55;42.85;;;28.50;;
36799;SDS011;22752;51.960;5.886;2023-05-09T06:02:21;42.42;;;28.33;;
36799;SDS011;22752;51.960;5.886;2023-05-09T06:04:47;45.20;;;29.80;;
36799;SDS011;22752;51.960;5.886;2023-05-09T06:07:12;35.28;;;25.40;;
36799;SDS011;22752;51.960;5.886;2023-05-09T06:09:38;38.80;;;27.05;;
36799;SDS011;22752;51.960;5.886;2023-05-09T06:12:04;39.13;;;25.08;;
36799;SDS011;22752;51.960;5.886;2023-05-09T06:14:30;46.35;;;25.65;;
36799;SDS011;22752;51.960;5.886;2023-05-09T06:16:56;34.00;;;23.08;;
36799;SDS011;22752;51.960;5.886;2023-05-09T06:19:23;34.92;;;24.08;;
36799;SDS011;22752;51.960;5.886;2023-05-09T06:21:48;35.25;;;22.73;;
36799;SDS011;22752;51.960;5.886;2023-05-09T06:24:14;36.08;;;23.60;;
36799;SDS011;22752;51.960;5.886;2023-05-09T06:26:40;33.58;;;22.80;;
36799;SDS011;22752;51.960;5.886;2023-05-09T06:29:05;33.55;;;21.67;;
36799;SDS011;22752;51.960;5.886;2023-05-09T06:31:31;28.83;;;21.23;;
36799;SDS011;22752;51.960;5.886;2023-05-09T06:33:59;28.92;;;21.13;;
36799;SDS011;22752;51.960;5.886;2023-05-09T06:36:25;34.30;;;22.83;;
36799;SDS011;22752;51.960;5.886;2023-05-09T06:38:51;28.80;;;20.52;;
36799;SDS011;22752;51.960;5.886;2023-05-09T06:41:16;31.33;;;20.70;;
36799;SDS011;22752;51.960;5.886;2023-05-09T06:43:42;26.55;;;18.90;;
36799;SDS011;22752;51.960;5.886;2023-05-09T06:46:08;26.73;;;18.23;;
36799;SDS011;22752;51.960;5.886;2023-05-09T06:48:33;24.25;;;18.20;;
36799;SDS011;22752;51.960;5.886;2023-05-09T06:50:59;26.30;;;19.05;;
36799;SDS011;22752;51.960;5.886;2023-05-09T06:53:24;21.40;;;16.52;;
36799;SDS011;22752;51.960;5.886;2023-05-09T06:55:50;25.98;;;17.23;;
36799;SDS011;22752;51.960;5.886;2023-05-09T06:58:16;25.45;;;19.02;;
36799;SDS011;22752;51.960;5.886;2023-05-09T07:00:41;22.52;;;16.70;;
36799;SDS011;22752;51.960;5.886;2023-05-09T07:03:07;24.40;;;17.67;;
36799;SDS011;22752;51.960;5.886;2023-05-09T07:05:33;24.10;;;18.08;;
36799;SDS011;22752;51.960;5.886;2023-05-09T07:07:59;20.08;;;15.65;;
36799;SDS011;22752;51.960;5.886;2023-05-09T07:10:24;24.33;;;18.63;;
36799;SDS011;22752;51.960;5.886;2023-05-09T07:12:50;25.92;;;16.77;;
36799;SDS011;22752;51.960;5.886;2023-05-09T07:15:16;22.75;;;16.40;;
36799;SDS011;22752;51.960;5.886;2023-05-09T07:17:42;23.17;;;16.75;;
36799;SDS011;22752;51.960;5.886;2023-05-09T07:20:07;21.08;;;16.17;;
36799;SDS011;22752;51.960;5.886;2023-05-09T07:22:33;21.15;;;17.00;;
36799;SDS011;22752;51.960;5.886;2023-05-09T07:24:59;20.25;;;15.77;;
36799;SDS011;22752;51.960;5.886;2023-05-09T07:27:25;22.10;;;16.42;;
36799;SDS011;22752;51.960;5.886;2023-05-09T07:29:50;21.75;;;15.02;;
36799;SDS011;22752;51.960;5.886;2023-05-09T07:32:19;23.30;;;17.75;;
36799;SDS011;22752;51.960;5.886;2023-05-09T07:34:45;22.30;;;17.52;;
36799;SDS011;22752;51.960;5.886;2023-05-09T07:37:11;23.83;;;16.95;;
36799;SDS011;22752;51.960;5.886;2023-05-09T07:39:37;25.35;;;17.70;;
36799;SDS011;22752;51.960;5.886;2023-05-09T07:42:03;20.23;;;16.20;;
36799;SDS011;22752;51.960;5.886;2023-05-09T07:44:29;20.02;;;16.98;;
36799;SDS011;22752;51.960;5.886;2023-05-09T07:46:55;23.95;;;18.02;;
36799;SDS011;22752;51.960;5.886;2023-05-09T07:49:23;20.27;;;16.88;;
36799;SDS011;22752;51.960;5.886;2023-05-09T07:51:49;27.80;;;16.95;;
36799;SDS011;22752;51.960;5.886;2023-05-09T07:54:15;23.95;;;17.52;;
36799;SDS011;22752;51.960;5.886;2023-05-09T07:56:41;21.80;;;16.50;;
36799;SDS011;22752;51.960;5.886;2023-05-09T07:59:06;21.10;;;16.75;;
36799;SDS011;22752;51.960;5.886;2023-05-09T08:01:32;21.42;;;16.88;;
36799;SDS011;22752;51.960;5.886;2023-05-09T08:03:58;20.92;;;17.25;;
36799;SDS011;22752;51.960;5.886;2023-05-09T08:06:23;20.48;;;17.15;;
36799;SDS011;22752;51.960;5.886;2023-05-09T08:08:50;21.50;;;17.05;;
36799;SDS011;22752;51.960;5.886;2023-05-09T08:11:16;22.52;;;18.17;;
36799;SDS011;22752;51.960;5.886;2023-05-09T08:13:42;21.58;;;15.55;;
36799;SDS011;22752;51.960;5.886;2023-05-09T08:16:07;20.42;;;16.67;;
36799;SDS011;22752;51.960;5.886;2023-05-09T08:18:33;22.90;;;18.25;;
36799;SDS011;22752;51.960;5.886;2023-05-09T08:20:59;22.20;;;17.10;;
36799;SDS011;22752;51.960;5.886;2023-05-09T08:23:25;24.13;;;17.10;;
36799;SDS011;22752;51.960;5.886;2023-05-09T08:25:51;19.85;;;15.50;;
36799;SDS011;22752;51.960;5.886;2023-05-09T08:28:20;19.50;;;15.35;;
36799;SDS011;22752;51.960;5.886;2023-05-09T08:30:48;20.65;;;15.52;;
36799;SDS011;22752;51.960;5.886;2023-05-09T08:33:15;20.15;;;15.07;;
36799;SDS011;22752;51.960;5.886;2023-05-09T08:35:41;18.05;;;15.30;;
36799;SDS011;22752;51.960;5.886;2023-05-09T08:38:07;19.65;;;14.73;;
36799;SDS011;22752;51.960;5.886;2023-05-09T08:40:36;22.13;;;15.40;;
36799;SDS011;22752;51.960;5.886;2023-05-09T08:43:05;21.10;;;16.25;;
36799;SDS011;22752;51.960;5.886;2023-05-09T08:45:32;19.13;;;15.18;;
36799;SDS011;22752;51.960;5.886;2023-05-09T08:48:01;20.60;;;14.93;;
36799;SDS011;22752;51.960;5.886;2023-05-09T08:50:27;19.15;;;14.65;;
36799;SDS011;22752;51.960;5.886;2023-05-09T08:52:53;20.38;;;15.13;;
36799;SDS011;22752;51.960;5.886;2023-05-09T08:55:20;20.42;;;15.48;;
36799;SDS011;22752;51.960;5.886;2023-05-09T08:57:46;18.83;;;16.80;;
36799;SDS011;22752;51.960;5.886;2023-05-09T09:00:12;23.27;;;18.13;;
36799;SDS011;22752;51.960;5.886;2023-05-09T09:02:39;21.83;;;16.33;;
36799;SDS011;22752;51.960;5.886;2023-05-09T09:05:08;21.80;;;16.42;;
36799;SDS011;22752;51.960;5.886;2023-05-09T09:07:34;19.52;;;15.50;;
36799;SDS011;22752;51.960;5.886;2023-05-09T09:10:02;22.80;;;17.45;;
36799;SDS011;22752;51.960;5.886;2023-05-09T09:12:28;17.92;;;14.43;;
36799;SDS011;22752;51.960;5.886;2023-05-09T09:14:55;18.20;;;14.52;;
36799;SDS011;22752;51.960;5.886;2023-05-09T09:17:26;19.20;;;14.23;;
36799;SDS011;22752;51.960;5.886;2023-05-09T09:19:55;21.17;;;16.35;;
36799;SDS011;22752;51.960;5.886;2023-05-09T09:22:24;22.48;;;16.38;;
36799;SDS011;22752;51.960;5.886;2023-05-09T09:24:58;17.25;;;14.90;;
36799;SDS011;22752;51.960;5.886;2023-05-09T09:27:25;19.05;;;15.68;;
36799;SDS011;22752;51.960;5.886;2023-05-09T09:29:51;16.02;;;13.05;;
36799;SDS011;22752;51.960;5.886;2023-05-09T09:32:16;18.80;;;13.73;;
36799;SDS011;22752;51.960;5.886;2023-05-09T09:34:43;15.95;;;12.60;;
36799;SDS011;22752;51.960;5.886;2023-05-09T09:37:22;13.77;;;11.80;;
36799;SDS011;22752;51.960;5.886;2023-05-09T09:39:55;12.95;;;10.40;;
36799;SDS011;22752;51.960;5.886;2023-05-09T09:42:20;19.08;;;13.45;;
36799;SDS011;22752;51.960;5.886;2023-05-09T09:45:05;13.93;;;11.32;;
36799;SDS011;22752;51.960;5.886;2023-05-09T09:47:37;12.90;;;11.23;;
36799;SDS011;22752;51.960;5.886;2023-05-09T09:50:17;14.65;;;11.57;;
36799;SDS011;22752;51.960;5.886;2023-05-09T09:52:54;13.13;;;11.52;;
36799;SDS011;22752;51.960;5.886;2023-05-09T09:55:20;13.30;;;10.90;;
36799;SDS011;22752;51.960;5.886;2023-05-09T09:57:48;14.10;;;10.52;;
36799;SDS011;22752;51.960;5.886;2023-05-09T10:00:15;11.55;;;9.93;;
36799;SDS011;22752;51.960;5.886;2023-05-09T10:03:00;12.45;;;11.13;;
36799;SDS011;22752;51.960;5.886;2023-05-09T10:05:27;12.30;;;10.00;;
36799;SDS011;22752;51.960;5.886;2023-05-09T10:07:55;10.35;;;8.45;;
36799;SDS011;22752;51.960;5.886;2023-05-09T10:10:22;11.48;;;8.40;;
36799;SDS011;22752;51.960;5.886;2023-05-09T10:12:53;10.80;;;7.10;;
36799;SDS011;22752;51.960;5.886;2023-05-09T10:15:22;8.63;;;7.40;;
36799;SDS011;22752;51.960;5.886;2023-05-09T10:17:55;8.50;;;6.72;;
36799;SDS011;22752;51.960;5.886;2023-05-09T10:20:22;7.28;;;6.20;;
36799;SDS011;22752;51.960;5.886;2023-05-09T10:22:49;7.65;;;5.30;;
36799;SDS011;22752;51.960;5.886;2023-05-09T10:25:27;6.60;;;5.25;;
36799;SDS011;22752;51.960;5.886;2023-05-09T10:28:16;5.90;;;5.32;;
36799;SDS011;22752;51.960;5.886;2023-05-09T10:30:56;7.65;;;5.93;;
36799;SDS011;22752;51.960;5.886;2023-05-09T10:33:30;8.32;;;5.97;;
36799;SDS011;22752;51.960;5.886;2023-05-09T10:36:01;8.32;;;5.50;;
36799;SDS011;22752;51.960;5.886;2023-05-09T10:38:29;7.40;;;5.07;;
36799;SDS011;22752;51.960;5.886;2023-05-09T10:40:55;4.80;;;4.30;;
36799;SDS011;22752;51.960;5.886;2023-05-09T10:43:21;6.32;;;5.13;;
36799;SDS011;22752;51.960;5.886;2023-05-09T10:45:49;9.90;;;6.13;;
36799;SDS011;22752;51.960;5.886;2023-05-09T10:48:16;7.25;;;5.85;;
36799;SDS011;22752;51.960;5.886;2023-05-09T10:50:42;7.45;;;5.20;;
36799;SDS011;22752;51.960;5.886;2023-05-09T10:53:09;7.82;;;6.05;;
36799;SDS011;22752;51.960;5.886;2023-05-09T11:00:51;7.88;;;6.55;;
36799;SDS011;22752;51.960;5.886;2023-05-09T11:03:18;8.70;;;6.97;;
36799;SDS011;22752;51.960;5.886;2023-05-09T11:05:45;9.27;;;6.90;;
36799;SDS011;22752;51.960;5.886;2023-05-09T11:10:52;10.60;;;7.55;;
36799;SDS011;22752;51.960;5.886;2023-05-09T11:13:19;10.63;;;7.00;;
36799;SDS011;22752;51.960;5.886;2023-05-09T11:18:25;8.13;;;6.60;;
36799;SDS011;22752;51.960;5.886;2023-05-09T11:20:52;7.22;;;6.45;;
36799;SDS011;22752;51.960;5.886;2023-05-09T11:23:19;8.10;;;6.65;;
36799;SDS011;22752;51.960;5.886;2023-05-09T11:25:47;8.02;;;6.03;;
36799;SDS011;22752;51.960;5.886;2023-05-09T11:28:30;7.65;;;6.20;;
36799;SDS011;22752;51.960;5.886;2023-05-09T11:31:10;7.88;;;5.97;;
36799;SDS011;22752;51.960;5.886;2023-05-09T11:33:43;6.75;;;5.32;;
36799;SDS011;22752;51.960;5.886;2023-05-09T11:39:06;8.38;;;4.65;;
36799;SDS011;22752;51.960;5.886;2023-05-09T11:41:43;8.10;;;4.90;;
36799;SDS011;22752;51.960;5.886;2023-05-09T11:44:14;5.90;;;4.80;;
36799;SDS011;22752;51.960;5.886;2023-05-09T11:46:41;5.40;;;4.63;;
36799;SDS011;22752;51.960;5.886;2023-05-09T11:49:07;6.95;;;5.00;;
36799;SDS011;22752;51.960;5.886;2023-05-09T11:51:37;6.85;;;5.00;;
36799;SDS011;22752;51.960;5.886;2023-05-09T11:54:06;8.85;;;4.90;;
36799;SDS011;22752;51.960;5.886;2023-05-09T11:56:33;7.22;;;4.88;;
36799;SDS011;22752;51.960;5.886;2023-05-09T11:59:00;6.47;;;5.00;;
36799;SDS011;22752;51.960;5.886;2023-05-09T12:01:27;7.75;;;4.60;;
36799;SDS011;22752;51.960;5.886;2023-05-09T12:03:54;7.57;;;4.55;;
36799;SDS011;22752;51.960;5.886;2023-05-09T12:06:20;7.35;;;4.22;;
36799;SDS011;22752;51.960;5.886;2023-05-09T12:08:45;5.38;;;3.75;;
36799;SDS011;22752;51.960;5.886;2023-05-09T12:11:11;7.82;;;4.70;;
36799;SDS011;22752;51.960;5.886;2023-05-09T12:13:47;6.47;;;3.53;;
36799;SDS011;22752;51.960;5.886;2023-05-09T12:16:15;4.80;;;3.25;;
36799;SDS011;22752;51.960;5.886;2023-05-09T12:21:11;5.72;;;3.20;;
36799;SDS011;22752;51.960;5.886;2023-05-09T12:23:37;3.45;;;2.60;;
36799;SDS011;22752;51.960;5.886;2023-05-09T12:26:03;4.95;;;2.67;;
36799;SDS011;22752;51.960;5.886;2023-05-09T12:28:29;3.03;;;2.60;;
36799;SDS011;22752;51.960;5.886;2023-05-09T12:30:55;3.42;;;2.30;;
36799;SDS011;22752;51.960;5.886;2023-05-09T12:33:22;6.57;;;2.80;;
36799;SDS011;22752;51.960;5.886;2023-05-09T12:36:00;3.85;;;2.80;;
36799;SDS011;22752;51.960;5.886;2023-05-09T12:38:34;3.63;;;2.55;;
36799;SDS011;22752;51.960;5.886;2023-05-09T12:41:03;3.78;;;2.67;;
36799;SDS011;22752;51.960;5.886;2023-05-09T12:43:34;4.38;;;3.00;;
36799;SDS011;22752;51.960;5.886;2023-05-09T12:46:02;4.80;;;2.78;;
36799;SDS011;22752;51.960;5.886;2023-05-09T12:48:29;4.50;;;3.00;;
36799;SDS011;22752;51.960;5.886;2023-05-09T12:51:03;2.88;;;2.55;;
36799;SDS011;22752;51.960;5.886;2023-05-09T12:53:29;2.70;;;2.50;;
36799;SDS011;22752;51.960;5.886;2023-05-09T12:56:02;3.25;;;2.63;;
36799;SDS011;22752;51.960;5.886;2023-05-09T12:58:31;6.38;;;3.40;;
36799;SDS011;22752;51.960;5.886;2023-05-09T13:00:58;3.17;;;2.75;;
36799;SDS011;22752;51.960;5.886;2023-05-09T13:03:25;3.13;;;2.83;;
36799;SDS011;22752;51.960;5.886;2023-05-09T13:06:00;2.88;;;2.50;;
36799;SDS011;22752;51.960;5.886;2023-05-09T13:08:27;3.30;;;3.00;;
36799;SDS011;22752;51.960;5.886;2023-05-09T13:10:54;3.78;;;2.80;;
36799;SDS011;22752;51.960;5.886;2023-05-09T13:13:21;3.30;;;2.80;;
36799;SDS011;22752;51.960;5.886;2023-05-09T13:15:50;4.75;;;3.20;;
36799;SDS011;22752;51.960;5.886;2023-05-09T13:18:16;4.35;;;3.00;;
36799;SDS011;22752;51.960;5.886;2023-05-09T13:20:42;3.17;;;2.85;;
36799;SDS011;22752;51.960;5.886;2023-05-09T13:23:07;5.90;;;2.80;;
36799;SDS011;22752;51.960;5.886;2023-05-09T13:25:33;3.45;;;2.83;;
36799;SDS011;22752;51.960;5.886;2023-05-09T13:27:59;3.72;;;2.88;;
36799;SDS011;22752;51.960;5.886;2023-05-09T13:30:25;3.83;;;2.65;;
36799;SDS011;22752;51.960;5.886;2023-05-09T13:32:51;3.33;;;2.90;;
36799;SDS011;22752;51.960;5.886;2023-05-09T13:35:16;3.97;;;2.75;;
36799;SDS011;22752;51.960;5.886;2023-05-09T13:37:42;3.13;;;2.80;;
36799;SDS011;22752;51.960;5.886;2023-05-09T13:40:08;4.13;;;2.95;;
36799;SDS011;22752;51.960;5.886;2023-05-09T13:42:34;3.35;;;2.85;;
36799;SDS011;22752;51.960;5.886;2023-05-09T13:45:00;3.60;;;3.10;;
36799;SDS011;22752;51.960;5.886;2023-05-09T13:47:26;6.35;;;3.58;;
36799;SDS011;22752;51.960;5.886;2023-05-09T13:49:52;3.92;;;3.28;;
36799;SDS011;22752;51.960;5.886;2023-05-09T13:52:18;4.10;;;3.25;;
36799;SDS011;22752;51.960;5.886;2023-05-09T13:54:44;3.22;;;2.75;;
36799;SDS011;22752;51.960;5.886;2023-05-09T13:57:10;3.22;;;2.92;;
36799;SDS011;22752;51.960;5.886;2023-05-09T13:59:36;3.97;;;2.40;;
36799;SDS011;22752;51.960;5.886;2023-05-09T14:02:02;2.85;;;2.05;;
36799;SDS011;22752;51.960;5.886;2023-05-09T14:04:28;2.15;;;1.40;;
36799;SDS011;22752;51.960;5.886;2023-05-09T14:06:58;2.42;;;1.40;;
36799;SDS011;22752;51.960;5.886;2023-05-09T14:09:25;2.90;;;1.70;;
36799;SDS011;22752;51.960;5.886;2023-05-09T14:11:52;1.90;;;1.40;;
36799;SDS011;22752;51.960;5.886;2023-05-09T14:14:19;1.48;;;1.17;;
36799;SDS011;22752;51.960;5.886;2023-05-09T14:16:46;2.38;;;1.30;;
36799;SDS011;22752;51.960;5.886;2023-05-09T14:19:13;4.60;;;1.73;;
36799;SDS011;22752;51.960;5.886;2023-05-09T14:21:39;3.05;;;1.70;;
36799;SDS011;22752;51.960;5.886;2023-05-09T14:24:07;2.30;;;2.10;;
36799;SDS011;22752;51.960;5.886;2023-05-09T14:26:33;2.40;;;2.20;;
36799;SDS011;22752;51.960;5.886;2023-05-09T14:28:59;3.28;;;2.10;;
36799;SDS011;22752;51.960;5.886;2023-05-09T14:31:27;2.75;;;2.22;;
36799;SDS011;22752;51.960;5.886;2023-05-09T14:33:53;3.47;;;2.67;;
36799;SDS011;22752;51.960;5.886;2023-05-09T14:36:19;3.85;;;2.40;;
36799;SDS011;22752;51.960;5.886;2023-05-09T14:38:45;4.05;;;2.78;;
36799;SDS011;22752;51.960;5.886;2023-05-09T14:41:12;3.28;;;2.60;;
36799;SDS011;22752;51.960;5.886;2023-05-09T14:43:38;3.90;;;2.67;;
36799;SDS011;22752;51.960;5.886;2023-05-09T14:46:04;3.28;;;2.97;;
36799;SDS011;22752;51.960;5.886;2023-05-09T14:48:30;5.60;;;3.03;;
36799;SDS011;22752;51.960;5.886;2023-05-09T14:50:56;3.08;;;2.33;;